sensor_id;sensor_type;location;lat;lon;timestamp;pressure;altitude;pressure_sealevel;temperature;humidity
44453;BME280;30155;52.164;21.236;2023-08-01T00:24:55;99704.75;;;17.89;66.71
44453;BME280;30155;52.164;21.236;2023-08-01T05:01:54;99452.23;;;18.39;65.59
44453;BME280;30155;52.164;21.236;2023-08-01T05:07:48;99446.80;;;18.72;64.89
44453;BME280;30155;52.164;21.236;2023-08-01T05:12:47;99446.04;;;18.93;64.74
44453;BME280;30155;52.164;21.236;2023-08-01T05:23:12;99428.67;;;19.38;63.89
44453;BME280;30155;52.164;21.236;2023-08-01T05:33:53;99415.27;;;19.70;63.03
44453;BME280;30155;52.164;21.236;2023-08-01T05:39:15;99410.91;;;19.91;62.62
44453;BME280;30155;52.164;21.236;2023-08-01T05:44:41;99408.21;;;20.41;62.39
44453;BME280;30155;52.164;21.236;2023-08-01T05:49:56;99404.92;;;20.65;61.31
44453;BME280;30155;52.164;21.236;2023-08-01T05:55:19;99405.63;;;20.65;60.87
44453;BME280;30155;52.164;21.236;2023-08-01T06:00:20;99400.93;;;20.55;60.73
44453;BME280;30155;52.164;21.236;2023-08-01T06:05:58;99396.14;;;20.64;60.36
44453;BME280;30155;52.164;21.236;2023-08-01T06:11:27;99390.81;;;20.92;60.19
44453;BME280;30155;52.164;21.236;2023-08-01T06:16:53;99392.01;;;21.15;59.79
44453;BME280;30155;52.164;21.236;2023-08-01T06:36:09;99372.64;;;21.55;58.62
44453;BME280;30155;52.164;21.236;2023-08-01T06:41:50;99370.14;;;21.53;58.67
44453;BME280;30155;52.164;21.236;2023-08-01T06:47:20;99366.27;;;21.41;58.74
44453;BME280;30155;52.164;21.236;2023-08-01T06:59:05;99355.70;;;21.80;58.14
44453;BME280;30155;52.164;21.236;2023-08-01T07:05:04;99353.44;;;22.03;57.66
44453;BME280;30155;52.164;21.236;2023-08-01T07:25:12;99326.59;;;23.88;55.17
44453;BME280;30155;52.164;21.236;2023-08-01T07:31:07;99320.66;;;24.22;54.82
44453;BME280;30155;52.164;21.236;2023-08-01T07:36:15;99319.31;;;24.47;54.30
44453;BME280;30155;52.164;21.236;2023-08-01T07:54:42;99294.73;;;25.48;51.72
44453;BME280;30155;52.164;21.236;2023-08-01T08:00:14;99294.75;;;26.08;51.03
44453;BME280;30155;52.164;21.236;2023-08-01T08:06:05;99295.67;;;26.20;50.47
44453;BME280;30155;52.164;21.236;2023-08-01T08:10:58;99285.95;;;26.14;50.72
44453;BME280;30155;52.164;21.236;2023-08-01T08:15:51;99276.14;;;26.45;50.55
44453;BME280;30155;52.164;21.236;2023-08-01T08:20:47;99271.80;;;26.46;50.79
44453;BME280;30155;52.164;21.236;2023-08-01T08:25:44;99261.88;;;26.33;50.32
44453;BME280;30155;52.164;21.236;2023-08-01T08:30:39;99259.55;;;26.11;50.76
44453;BME280;30155;52.164;21.236;2023-08-01T08:35:33;99255.63;;;25.78;50.77
44453;BME280;30155;52.164;21.236;2023-08-01T08:40:27;99257.35;;;25.61;51.36
44453;BME280;30155;52.164;21.236;2023-08-01T08:58:53;99242.98;;;25.29;52.03
44453;BME280;30155;52.164;21.236;2023-08-01T09:09:34;99230.50;;;24.59;52.09
44453;BME280;30155;52.164;21.236;2023-08-01T09:14:38;99234.46;;;24.36;52.42
44453;BME280;30155;52.164;21.236;2023-08-01T09:19:31;99229.20;;;24.27;52.70
44453;BME280;30155;52.164;21.236;2023-08-01T09:24:24;99220.50;;;24.24;52.92
44453;BME280;30155;52.164;21.236;2023-08-01T09:29:18;99222.94;;;24.16;53.17
44453;BME280;30155;52.164;21.236;2023-08-01T09:40:39;99226.55;;;24.10;53.40
44453;BME280;30155;52.164;21.236;2023-08-01T10:19:09;99205.77;;;25.21;52.83
44453;BME280;30155;52.164;21.236;2023-08-01T10:24:45;99203.14;;;25.33;52.20
44453;BME280;30155;52.164;21.236;2023-08-01T10:30:25;99199.15;;;25.29;51.85
44453;BME280;30155;52.164;21.236;2023-08-01T10:42:51;99206.23;;;24.46;52.70
44453;BME280;30155;52.164;21.236;2023-08-01T10:54:40;99221.81;;;23.54;55.06
44453;BME280;30155;52.164;21.236;2023-08-01T11:06:30;99211.53;;;22.91;57.21
44453;BME280;30155;52.164;21.236;2023-08-01T11:19:00;99209.21;;;22.79;59.73
44453;BME280;30155;52.164;21.236;2023-08-01T11:24:10;99204.70;;;22.83;59.99
44453;BME280;30155;52.164;21.236;2023-08-01T11:29:06;99205.94;;;22.80;60.36
44453;BME280;30155;52.164;21.236;2023-08-01T11:34:04;99203.38;;;22.85;61.07
44453;BME280;30155;52.164;21.236;2023-08-01T11:45:18;99202.07;;;22.92;61.56
44453;BME280;30155;52.164;21.236;2023-08-01T11:50:24;99200.33;;;22.98;61.92
44453;BME280;30155;52.164;21.236;2023-08-01T11:55:53;99202.30;;;23.03;62.01
44453;BME280;30155;52.164;21.236;2023-08-01T12:01:21;99198.93;;;23.16;62.27
44453;BME280;30155;52.164;21.236;2023-08-01T12:33:33;99148.30;;;24.41;58.50
44453;BME280;30155;52.164;21.236;2023-08-01T12:39:15;99143.47;;;24.27;58.00
44453;BME280;30155;52.164;21.236;2023-08-01T13:12:01;99112.95;;;24.50;57.64
44453;BME280;30155;52.164;21.236;2023-08-01T13:31:04;99099.31;;;24.90;55.89
44453;BME280;30155;52.164;21.236;2023-08-01T14:09:46;99046.40;;;24.28;56.43
44453;BME280;30155;52.164;21.236;2023-08-01T14:49:16;99030.09;;;22.97;59.87
44453;BME280;30155;52.164;21.236;2023-08-01T14:54:36;99025.65;;;22.89;59.97
44453;BME280;30155;52.164;21.236;2023-08-01T15:06:04;99026.48;;;22.48;60.66
44453;BME280;30155;52.164;21.236;2023-08-01T15:16:38;99016.78;;;22.07;61.87
44453;BME280;30155;52.164;21.236;2023-08-01T15:28:50;99011.37;;;22.00;62.00
44453;BME280;30155;52.164;21.236;2023-08-01T15:34:20;99007.06;;;22.20;61.73
44453;BME280;30155;52.164;21.236;2023-08-01T16:20:11;99031.04;;;21.96;62.27
44453;BME280;30155;52.164;21.236;2023-08-01T16:40:34;99015.16;;;21.93;62.75
44453;BME280;30155;52.164;21.236;2023-08-01T17:02:21;99034.92;;;21.86;62.25
44453;BME280;30155;52.164;21.236;2023-08-01T17:35:22;99056.62;;;21.11;63.81
44453;BME280;30155;52.164;21.236;2023-08-01T18:07:07;99077.29;;;20.58;65.10
44453;BME280;30155;52.164;21.236;2023-08-01T19:11:49;99100.71;;;20.03;66.83
44453;BME280;30155;52.164;21.236;2023-08-01T19:38:21;99116.31;;;19.89;67.37
44453;BME280;30155;52.164;21.236;2023-08-01T19:58:23;99123.94;;;19.80;67.81
44453;BME280;30155;52.164;21.236;2023-08-01T20:31:28;99156.30;;;19.63;68.91
44453;BME280;30155;52.164;21.236;2023-08-01T20:43:00;99169.14;;;19.43;70.07
44453;BME280;30155;52.164;21.236;2023-08-01T20:47:52;99176.50;;;19.31;70.78
44453;BME280;30155;52.164;21.236;2023-08-01T20:52:44;99179.80;;;19.16;71.32
44453;BME280;30155;52.164;21.236;2023-08-01T20:57:36;99180.24;;;19.02;71.81
44453;BME280;30155;52.164;21.236;2023-08-01T21:02:28;99184.56;;;18.95;72.43
44453;BME280;30155;52.164;21.236;2023-08-01T21:07:21;99186.33;;;18.90;72.92
44453;BME280;30155;52.164;21.236;2023-08-01T21:12:16;99197.33;;;18.88;73.35
44453;BME280;30155;52.164;21.236;2023-08-01T21:17:08;99198.70;;;18.84;73.58
44453;BME280;30155;52.164;21.236;2023-08-01T21:22:01;99198.77;;;18.77;73.85
44453;BME280;30155;52.164;21.236;2023-08-01T21:26:56;99197.60;;;18.71;74.10
44453;BME280;30155;52.164;21.236;2023-08-01T21:31:47;99199.20;;;18.66;74.42
44453;BME280;30155;52.164;21.236;2023-08-01T21:36:42;99199.24;;;18.65;74.69
44453;BME280;30155;52.164;21.236;2023-08-01T21:41:43;99198.48;;;18.62;74.97
44453;BME280;30155;52.164;21.236;2023-08-01T21:46:39;99202.09;;;18.56;74.98
44453;BME280;30155;52.164;21.236;2023-08-01T21:51:31;99203.75;;;18.54;75.36
44453;BME280;30155;52.164;21.236;2023-08-01T21:56:23;99203.66;;;18.51;75.54
44453;BME280;30155;52.164;21.236;2023-08-01T22:01:14;99202.22;;;18.48;75.75
44453;BME280;30155;52.164;21.236;2023-08-01T22:06:06;99200.39;;;18.46;75.87
44453;BME280;30155;52.164;21.236;2023-08-01T22:10:58;99183.73;;;18.41;76.12
44453;BME280;30155;52.164;21.236;2023-08-01T22:15:50;99185.25;;;18.38;76.34
44453;BME280;30155;52.164;21.236;2023-08-01T22:20:41;99185.48;;;18.36;76.55
44453;BME280;30155;52.164;21.236;2023-08-01T22:25:33;99183.36;;;18.33;76.76
44453;BME280;30155;52.164;21.236;2023-08-01T22:30:25;99194.00;;;18.29;76.90
44453;BME280;30155;52.164;21.236;2023-08-01T22:35:17;99195.18;;;18.26;77.00
44453;BME280;30155;52.164;21.236;2023-08-01T22:40:11;99199.71;;;18.22;77.11
44453;BME280;30155;52.164;21.236;2023-08-01T22:45:03;99206.04;;;18.17;77.27
44453;BME280;30155;52.164;21.236;2023-08-01T22:49:55;99201.69;;;18.16;77.50
44453;BME280;30155;52.164;21.236;2023-08-01T22:55:00;99199.13;;;18.15;77.70
44453;BME280;30155;52.164;21.236;2023-08-01T22:59:51;99206.88;;;18.13;77.84
44453;BME280;30155;52.164;21.236;2023-08-01T23:04:44;99215.71;;;18.12;77.93
44453;BME280;30155;52.164;21.236;2023-08-01T23:09:37;99221.77;;;18.09;78.02
44453;BME280;30155;52.164;21.236;2023-08-01T23:14:29;99224.84;;;18.07;78.20
44453;BME280;30155;52.164;21.236;2023-08-01T23:19:28;99225.59;;;18.06;78.43
44453;BME280;30155;52.164;21.236;2023-08-01T23:24:20;99219.91;;;18.03;78.52
44453;BME280;30155;52.164;21.236;2023-08-01T23:29:12;99224.70;;;18.01;78.69
44453;BME280;30155;52.164;21.236;2023-08-01T23:34:05;99223.86;;;18.01;78.80
44453;BME280;30155;52.164;21.236;2023-08-01T23:38:56;99225.48;;;17.99;78.98
44453;BME280;30155;52.164;21.236;2023-08-01T23:44:08;99236.14;;;17.96;78.88
44453;BME280;30155;52.164;21.236;2023-08-01T23:49:19;99237.10;;;17.93;79.13
44453;BME280;30155;52.164;21.236;2023-08-01T23:54:11;99233.66;;;17.91;79.14
44453;BME280;30155;52.164;21.236;2023-08-01T23:59:06;99241.73;;;17.87;79.05
